LAN109 SCSE-SCEL
Flight info
| Callsign | LAN109 |
|---|---|
| Flight time | 0h 41m |
| Altitude | 27000 |
| Route | EDRON5 EDRON UL302 SIMOK SIMOK7B |
| Aircraft | A21N/M-SDE2E3FGHIRWXY/LB1 |
Departure
| Time | 2026-04-14 20:56 |
|---|---|
| Airport | La Florida Airport (SCSE) |
Arrival
| Time | 2026-04-14 21:37 |
|---|---|
| Airport | Comodoro Arturo Merino Benítez International Airport (SCEL) |
| Time | Latitude | Longitude | Altitude | Speed | Heading |
|---|---|---|---|---|---|
| 2026-04-14 20:23 | -29.91634 | -71.20401 | 486 ft | 0 kts | 205° |
| 2026-04-14 20:46 | -29.91630 | -71.20399 | 480 ft | 3 kts | 206° |
| 2026-04-14 20:46 | -29.91608 | -71.20384 | 480 ft | 4 kts | 212° |
| 2026-04-14 20:47 | -29.91592 | -71.20374 | 481 ft | 4 kts | 144° |
| 2026-04-14 20:47 | -29.91590 | -71.20377 | 482 ft | 1 kts | 116° |
| 2026-04-14 20:47 | -29.91589 | -71.20378 | 486 ft | 0 kts | 116° |
| 2026-04-14 20:51 | -29.91596 | -71.20363 | 481 ft | 4 kts | 116° |
| 2026-04-14 20:51 | -29.91615 | -71.20319 | 485 ft | 8 kts | 116° |
| 2026-04-14 20:51 | -29.91646 | -71.20248 | 482 ft | 12 kts | 116° |
| 2026-04-14 20:51 | -29.91662 | -71.20211 | 485 ft | 2 kts | 116° |
| 2026-04-14 20:52 | -29.91672 | -71.20185 | 485 ft | 5 kts | 105° |
| 2026-04-14 20:52 | -29.91645 | -71.20141 | 481 ft | 9 kts | 31° |
| 2026-04-14 20:52 | -29.91591 | -71.20095 | 478 ft | 11 kts | 77° |
| 2026-04-14 20:52 | -29.91623 | -71.19999 | 479 ft | 15 kts | 116° |
| 2026-04-14 20:53 | -29.91673 | -71.19882 | 479 ft | 18 kts | 116° |
| 2026-04-14 20:53 | -29.91732 | -71.19744 | 475 ft | 21 kts | 116° |
| 2026-04-14 20:53 | -29.91800 | -71.19584 | 484 ft | 24 kts | 116° |
| 2026-04-14 20:53 | -29.91877 | -71.19406 | 481 ft | 26 kts | 117° |
| 2026-04-14 20:54 | -29.91947 | -71.19242 | 486 ft | 5 kts | 116° |
| 2026-04-14 20:54 | -29.91967 | -71.19198 | 481 ft | 7 kts | 117° |
| 2026-04-14 20:54 | -29.91998 | -71.19144 | 481 ft | 9 kts | 137° |
| 2026-04-14 20:54 | -29.92043 | -71.19087 | 482 ft | 8 kts | 94° |
| 2026-04-14 20:55 | -29.92022 | -71.19081 | 481 ft | 5 kts | 320° |
| 2026-04-14 20:55 | -29.92001 | -71.19116 | 481 ft | 0 kts | 296° |
| 2026-04-14 20:55 | -29.91970 | -71.19191 | 481 ft | 42 kts | 296° |
| 2026-04-14 20:56 | -29.91714 | -71.19788 | 479 ft | 121 kts | 296° |
| 2026-04-14 20:56 | -29.91281 | -71.20798 | 743 ft | 148 kts | 297° |
| 2026-04-14 20:56 | -29.90800 | -71.21858 | 1425 ft | 152 kts | 297° |
| 2026-04-14 20:56 | -29.90287 | -71.22970 | 2021 ft | 162 kts | 296° |
| 2026-04-14 20:57 | -29.89804 | -71.24183 | 2587 ft | 172 kts | 291° |
| 2026-04-14 20:57 | -29.89539 | -71.25596 | 3011 ft | 192 kts | 262° |
| 2026-04-14 20:57 | -29.90117 | -71.27045 | 3411 ft | 216 kts | 223° |
| 2026-04-14 20:57 | -29.91503 | -71.27884 | 3778 ft | 241 kts | 187° |
| 2026-04-14 20:58 | -29.93240 | -71.27958 | 4455 ft | 257 kts | 179° |
| 2026-04-14 20:58 | -29.95051 | -71.27972 | 5377 ft | 263 kts | 179° |
| 2026-04-14 20:58 | -29.96900 | -71.28019 | 6350 ft | 268 kts | 180° |
| 2026-04-14 20:58 | -29.98785 | -71.28095 | 7229 ft | 274 kts | 181° |
| 2026-04-14 20:59 | -30.00710 | -71.28187 | 8093 ft | 280 kts | 181° |
| 2026-04-14 20:59 | -30.02008 | -71.28255 | 8638 ft | 285 kts | 181° |
| 2026-04-14 20:59 | -30.04018 | -71.28366 | 9447 ft | 293 kts | 182° |
| 2026-04-14 20:59 | -30.06077 | -71.28484 | 10215 ft | 301 kts | 182° |
| 2026-04-14 21:00 | -30.08234 | -71.28611 | 10690 ft | 320 kts | 182° |
| 2026-04-14 21:00 | -30.10506 | -71.28728 | 11262 ft | 332 kts | 181° |
| 2026-04-14 21:00 | -30.12830 | -71.28794 | 12082 ft | 335 kts | 181° |
| 2026-04-14 21:00 | -30.15167 | -71.28856 | 12973 ft | 337 kts | 181° |
| 2026-04-14 21:01 | -30.17518 | -71.28922 | 13859 ft | 339 kts | 181° |
| 2026-04-14 21:01 | -30.19880 | -71.28992 | 14656 ft | 341 kts | 182° |
| 2026-04-14 21:01 | -30.22263 | -71.29064 | 15419 ft | 344 kts | 182° |
| 2026-04-14 21:01 | -30.24673 | -71.29137 | 16137 ft | 349 kts | 182° |
| 2026-04-14 21:02 | -30.27110 | -71.29214 | 16854 ft | 352 kts | 182° |
| 2026-04-14 21:02 | -30.29573 | -71.29289 | 17594 ft | 356 kts | 182° |
| 2026-04-14 21:02 | -30.32056 | -71.29367 | 18331 ft | 358 kts | 183° |
| 2026-04-14 21:02 | -30.34565 | -71.29445 | 18922 ft | 362 kts | 183° |
| 2026-04-14 21:03 | -30.37098 | -71.29524 | 19494 ft | 367 kts | 183° |
| 2026-04-14 21:03 | -30.39666 | -71.29605 | 20082 ft | 371 kts | 183° |
| 2026-04-14 21:03 | -30.42257 | -71.29687 | 20649 ft | 375 kts | 184° |
| 2026-04-14 21:03 | -30.44884 | -71.29769 | 21235 ft | 379 kts | 184° |
| 2026-04-14 21:04 | -30.47535 | -71.29852 | 21818 ft | 383 kts | 184° |
| 2026-04-14 21:04 | -30.50208 | -71.29935 | 22372 ft | 387 kts | 184° |
| 2026-04-14 21:04 | -30.52916 | -71.30012 | 22954 ft | 391 kts | 183° |
| 2026-04-14 21:04 | -30.55642 | -71.29713 | 23472 ft | 399 kts | 169° |
| 2026-04-14 21:05 | -30.58253 | -71.28557 | 24002 ft | 405 kts | 155° |
| 2026-04-14 21:05 | -30.60734 | -71.27001 | 24593 ft | 405 kts | 154° |
| 2026-04-14 21:05 | -30.63198 | -71.25411 | 25185 ft | 405 kts | 154° |
| 2026-04-14 21:05 | -30.65662 | -71.23841 | 25766 ft | 404 kts | 155° |
| 2026-04-14 21:06 | -30.68130 | -71.22285 | 26359 ft | 403 kts | 155° |
| 2026-04-14 21:06 | -30.70600 | -71.20739 | 26845 ft | 405 kts | 155° |
| 2026-04-14 21:06 | -30.73083 | -71.19189 | 27029 ft | 404 kts | 156° |
| 2026-04-14 21:06 | -30.75559 | -71.17649 | 27066 ft | 404 kts | 156° |
| 2026-04-14 21:07 | -30.78037 | -71.16105 | 27067 ft | 404 kts | 156° |
| 2026-04-14 21:07 | -30.80510 | -71.14563 | 27062 ft | 403 kts | 156° |
| 2026-04-14 21:07 | -30.82983 | -71.13021 | 27057 ft | 403 kts | 156° |
| 2026-04-14 21:07 | -30.85455 | -71.11478 | 27053 ft | 403 kts | 156° |
| 2026-04-14 21:08 | -30.87928 | -71.09934 | 27056 ft | 403 kts | 156° |
| 2026-04-14 21:08 | -30.90402 | -71.08392 | 27056 ft | 403 kts | 156° |
| 2026-04-14 21:08 | -30.92878 | -71.06849 | 27067 ft | 403 kts | 155° |
| 2026-04-14 21:08 | -30.95352 | -71.05301 | 27061 ft | 404 kts | 155° |
| 2026-04-14 21:09 | -30.97836 | -71.03750 | 27068 ft | 405 kts | 155° |
| 2026-04-14 21:09 | -31.00315 | -71.02201 | 27064 ft | 404 kts | 155° |
| 2026-04-14 21:09 | -31.02794 | -71.00643 | 27070 ft | 404 kts | 155° |
| 2026-04-14 21:09 | -31.05265 | -70.99085 | 27073 ft | 404 kts | 155° |
| 2026-04-14 21:10 | -31.07741 | -70.97526 | 27082 ft | 404 kts | 155° |
| 2026-04-14 21:10 | -31.10215 | -70.95962 | 27082 ft | 404 kts | 155° |
| 2026-04-14 21:10 | -31.12687 | -70.94397 | 27081 ft | 404 kts | 155° |
| 2026-04-14 21:10 | -31.15163 | -70.92829 | 27082 ft | 404 kts | 155° |
| 2026-04-14 21:11 | -31.17635 | -70.91268 | 27100 ft | 405 kts | 155° |
| 2026-04-14 21:11 | -31.20116 | -70.89706 | 27095 ft | 405 kts | 155° |
| 2026-04-14 21:11 | -31.22596 | -70.88145 | 27094 ft | 405 kts | 155° |
| 2026-04-14 21:11 | -31.25075 | -70.86581 | 27110 ft | 405 kts | 155° |
| 2026-04-14 21:12 | -31.27551 | -70.85021 | 27121 ft | 404 kts | 155° |
| 2026-04-14 21:12 | -31.30026 | -70.83460 | 27120 ft | 404 kts | 155° |
| 2026-04-14 21:12 | -31.32543 | -70.82027 | 27115 ft | 400 kts | 164° |
| 2026-04-14 21:12 | -31.35225 | -70.81372 | 27113 ft | 391 kts | 182° |
| 2026-04-14 21:13 | -31.37925 | -70.81508 | 27124 ft | 387 kts | 189° |
| 2026-04-14 21:13 | -31.40604 | -70.81816 | 27128 ft | 387 kts | 190° |
| 2026-04-14 21:13 | -31.43288 | -70.82128 | 27138 ft | 388 kts | 189° |
| 2026-04-14 21:14 | -31.48655 | -70.82695 | 27134 ft | 389 kts | 189° |
| 2026-04-14 21:14 | -31.51357 | -70.82965 | 27135 ft | 391 kts | 189° |
| 2026-04-14 21:14 | -31.54073 | -70.83236 | 27124 ft | 392 kts | 189° |
| 2026-04-14 21:14 | -31.56788 | -70.83507 | 27118 ft | 391 kts | 189° |
| 2026-04-14 21:15 | -31.59501 | -70.83775 | 27112 ft | 391 kts | 189° |
| 2026-04-14 21:15 | -31.62196 | -70.84041 | 27114 ft | 386 kts | 189° |
| 2026-04-14 21:15 | -31.64856 | -70.84303 | 27116 ft | 385 kts | 189° |
| 2026-04-14 21:15 | -31.67546 | -70.84571 | 27124 ft | 388 kts | 189° |
| 2026-04-14 21:16 | -31.70251 | -70.84840 | 27132 ft | 392 kts | 189° |
| 2026-04-14 21:16 | -31.72967 | -70.85110 | 27121 ft | 391 kts | 189° |
| 2026-04-14 21:16 | -31.75694 | -70.85304 | 27120 ft | 394 kts | 184° |
| 2026-04-14 21:16 | -31.78443 | -70.85240 | 27118 ft | 396 kts | 182° |
| 2026-04-14 21:17 | -31.81195 | -70.85135 | 27119 ft | 396 kts | 182° |
| 2026-04-14 21:17 | -31.83926 | -70.85030 | 26924 ft | 388 kts | 182° |
| 2026-04-14 21:17 | -31.86600 | -70.84929 | 26673 ft | 382 kts | 182° |
| 2026-04-14 21:17 | -31.89252 | -70.84832 | 26430 ft | 380 kts | 182° |
| 2026-04-14 21:18 | -31.91889 | -70.84739 | 26186 ft | 378 kts | 182° |
| 2026-04-14 21:18 | -31.94515 | -70.84645 | 25969 ft | 377 kts | 183° |
| 2026-04-14 21:18 | -31.97138 | -70.84550 | 25731 ft | 376 kts | 183° |
| 2026-04-14 21:18 | -31.99753 | -70.84457 | 25494 ft | 375 kts | 183° |
| 2026-04-14 21:19 | -32.02355 | -70.84366 | 25262 ft | 373 kts | 183° |
| 2026-04-14 21:19 | -32.04948 | -70.84274 | 25024 ft | 372 kts | 182° |
| 2026-04-14 21:19 | -32.07531 | -70.84180 | 24757 ft | 370 kts | 182° |
| 2026-04-14 21:19 | -32.10092 | -70.84089 | 24367 ft | 367 kts | 182° |
| 2026-04-14 21:20 | -32.12634 | -70.84001 | 23925 ft | 365 kts | 182° |
| 2026-04-14 21:20 | -32.15166 | -70.83911 | 23459 ft | 364 kts | 182° |
| 2026-04-14 21:20 | -32.17692 | -70.83821 | 22943 ft | 363 kts | 182° |
| 2026-04-14 21:20 | -32.20210 | -70.83731 | 22444 ft | 362 kts | 182° |
| 2026-04-14 21:21 | -32.22719 | -70.83642 | 21953 ft | 360 kts | 182° |
| 2026-04-14 21:21 | -32.25223 | -70.83552 | 21462 ft | 359 kts | 182° |
| 2026-04-14 21:21 | -32.27719 | -70.83465 | 20983 ft | 358 kts | 181° |
| 2026-04-14 21:21 | -32.30205 | -70.83376 | 20523 ft | 356 kts | 181° |
| 2026-04-14 21:22 | -32.32680 | -70.83286 | 20076 ft | 355 kts | 181° |
| 2026-04-14 21:22 | -32.35141 | -70.83196 | 19639 ft | 354 kts | 181° |
| 2026-04-14 21:22 | -32.37600 | -70.83107 | 19190 ft | 353 kts | 181° |
| 2026-04-14 21:22 | -32.40053 | -70.83018 | 18754 ft | 352 kts | 181° |
| 2026-04-14 21:23 | -32.42505 | -70.82930 | 18310 ft | 353 kts | 181° |
| 2026-04-14 21:23 | -32.44951 | -70.82841 | 17822 ft | 350 kts | 180° |
| 2026-04-14 21:23 | -32.47364 | -70.82754 | 17362 ft | 345 kts | 180° |
| 2026-04-14 21:23 | -32.49743 | -70.82669 | 16920 ft | 338 kts | 180° |
| 2026-04-14 21:24 | -32.52068 | -70.82584 | 16516 ft | 330 kts | 180° |
| 2026-04-14 21:24 | -32.54330 | -70.82502 | 16150 ft | 322 kts | 180° |
| 2026-04-14 21:24 | -32.56571 | -70.82422 | 15791 ft | 322 kts | 180° |
| 2026-04-14 21:24 | -32.58813 | -70.82341 | 15425 ft | 323 kts | 180° |
| 2026-04-14 21:25 | -32.61071 | -70.82259 | 15033 ft | 326 kts | 180° |
| 2026-04-14 21:25 | -32.63345 | -70.82176 | 14635 ft | 329 kts | 180° |
| 2026-04-14 21:25 | -32.65642 | -70.82093 | 14223 ft | 331 kts | 180° |
| 2026-04-14 21:25 | -32.67945 | -70.82009 | 13808 ft | 330 kts | 179° |
| 2026-04-14 21:26 | -32.70221 | -70.81926 | 13371 ft | 324 kts | 179° |
| 2026-04-14 21:26 | -32.72455 | -70.81844 | 12923 ft | 318 kts | 179° |
| 2026-04-14 21:26 | -32.74648 | -70.81764 | 12536 ft | 312 kts | 179° |
| 2026-04-14 21:26 | -32.76785 | -70.81687 | 12311 ft | 302 kts | 179° |
| 2026-04-14 21:27 | -32.78839 | -70.81613 | 12141 ft | 289 kts | 179° |
| 2026-04-14 21:27 | -32.80832 | -70.81541 | 11810 ft | 285 kts | 179° |
| 2026-04-14 21:27 | -32.82814 | -70.81468 | 11386 ft | 285 kts | 179° |
| 2026-04-14 21:27 | -32.84796 | -70.81395 | 10995 ft | 284 kts | 179° |
| 2026-04-14 21:28 | -32.86768 | -70.81322 | 10617 ft | 282 kts | 179° |
| 2026-04-14 21:28 | -32.88721 | -70.81251 | 10232 ft | 280 kts | 178° |
| 2026-04-14 21:28 | -32.90674 | -70.81179 | 9781 ft | 281 kts | 178° |
| 2026-04-14 21:28 | -32.92622 | -70.81223 | 9388 ft | 279 kts | 186° |
| 2026-04-14 21:29 | -32.94542 | -70.81493 | 8978 ft | 277 kts | 187° |
| 2026-04-14 21:29 | -32.96457 | -70.81798 | 8572 ft | 276 kts | 187° |
| 2026-04-14 21:29 | -32.98362 | -70.82024 | 8198 ft | 275 kts | 184° |
| 2026-04-14 21:29 | -33.00268 | -70.82124 | 7813 ft | 273 kts | 181° |
| 2026-04-14 21:30 | -33.02162 | -70.82132 | 7427 ft | 272 kts | 180° |
| 2026-04-14 21:30 | -33.04042 | -70.82114 | 7106 ft | 267 kts | 178° |
| 2026-04-14 21:30 | -33.05897 | -70.82027 | 6702 ft | 266 kts | 177° |
| 2026-04-14 21:30 | -33.07745 | -70.81931 | 6273 ft | 265 kts | 177° |
| 2026-04-14 21:31 | -33.09567 | -70.81835 | 5894 ft | 261 kts | 177° |
| 2026-04-14 21:31 | -33.11363 | -70.81736 | 5561 ft | 255 kts | 177° |
| 2026-04-14 21:31 | -33.13095 | -70.81648 | 5370 ft | 243 kts | 178° |
| 2026-04-14 21:31 | -33.14739 | -70.81562 | 5226 ft | 230 kts | 178° |
| 2026-04-14 21:32 | -33.16292 | -70.81480 | 5078 ft | 217 kts | 177° |
| 2026-04-14 21:32 | -33.17755 | -70.81402 | 4961 ft | 206 kts | 177° |
| 2026-04-14 21:32 | -33.19156 | -70.81328 | 4953 ft | 190 kts | 178° |
| 2026-04-14 21:32 | -33.20396 | -70.81262 | 4879 ft | 175 kts | 178° |
| 2026-04-14 21:33 | -33.21583 | -70.81199 | 4648 ft | 165 kts | 178° |
| 2026-04-14 21:33 | -33.22709 | -70.81140 | 4418 ft | 158 kts | 177° |
| 2026-04-14 21:33 | -33.23789 | -70.81083 | 4210 ft | 157 kts | 177° |
| 2026-04-14 21:33 | -33.24841 | -70.81027 | 4018 ft | 144 kts | 177° |
| 2026-04-14 21:34 | -33.25824 | -70.80975 | 3827 ft | 137 kts | 178° |
| 2026-04-14 21:34 | -33.26772 | -70.80924 | 3651 ft | 135 kts | 178° |
| 2026-04-14 21:34 | -33.27702 | -70.80875 | 3482 ft | 133 kts | 178° |
| 2026-04-14 21:34 | -33.28616 | -70.80827 | 3305 ft | 133 kts | 178° |
| 2026-04-14 21:35 | -33.29536 | -70.80778 | 3133 ft | 133 kts | 178° |
| 2026-04-14 21:35 | -33.30451 | -70.80729 | 2952 ft | 131 kts | 177° |
| 2026-04-14 21:35 | -33.31347 | -70.80682 | 2799 ft | 127 kts | 177° |
| 2026-04-14 21:35 | -33.32230 | -70.80635 | 2646 ft | 127 kts | 176° |
| 2026-04-14 21:36 | -33.33107 | -70.80569 | 2471 ft | 126 kts | 176° |
| 2026-04-14 21:36 | -33.33991 | -70.80518 | 2298 ft | 127 kts | 176° |
| 2026-04-14 21:36 | -33.34872 | -70.80468 | 2135 ft | 126 kts | 177° |
| 2026-04-14 21:36 | -33.35759 | -70.80438 | 1958 ft | 127 kts | 177° |
| 2026-04-14 21:37 | -33.36628 | -70.80403 | 1745 ft | 124 kts | 178° |
| 2026-04-14 21:37 | -33.37476 | -70.80361 | 1586 ft | 120 kts | 176° |
| 2026-04-14 21:37 | -33.37986 | -70.80332 | 1577 ft | 92 kts | 175° |
| 2026-04-14 21:37 | -33.38452 | -70.80306 | 1578 ft | 37 kts | 177° |
| 2026-04-14 21:38 | -33.38715 | -70.80288 | 1580 ft | 39 kts | 176° |
| 2026-04-14 21:38 | -33.38988 | -70.80273 | 1579 ft | 40 kts | 177° |
| 2026-04-14 21:38 | -33.39252 | -70.80257 | 1578 ft | 13 kts | 175° |
| 2026-04-14 21:38 | -33.39309 | -70.80222 | 1577 ft | 10 kts | 140° |
| 2026-04-14 21:39 | -33.39370 | -70.80165 | 1575 ft | 12 kts | 141° |
| 2026-04-14 21:39 | -33.39443 | -70.80107 | 1573 ft | 13 kts | 149° |
| 2026-04-14 21:39 | -33.39516 | -70.80036 | 1571 ft | 14 kts | 125° |
| 2026-04-14 21:39 | -33.39529 | -70.79923 | 1570 ft | 8 kts | 89° |
| 2026-04-14 21:40 | -33.39528 | -70.79906 | 1570 ft | 2 kts | 89° |
| 2026-04-14 21:40 | -33.39527 | -70.79881 | 1570 ft | 4 kts | 89° |
| 2026-04-14 21:40 | -33.39526 | -70.79837 | 1570 ft | 7 kts | 87° |
| 2026-04-14 21:40 | -33.39523 | -70.79768 | 1570 ft | 10 kts | 90° |
| 2026-04-14 21:41 | -33.39520 | -70.79680 | 1570 ft | 11 kts | 87° |
| 2026-04-14 21:41 | -33.39537 | -70.79611 | 1570 ft | 9 kts | 163° |
| 2026-04-14 21:41 | -33.39560 | -70.79608 | 1570 ft | 1 kts | 178° |
| 2026-04-14 21:41 | -33.39572 | -70.79608 | 1570 ft | 2 kts | 183° |
| 2026-04-14 21:42 | -33.39590 | -70.79607 | 1570 ft | 3 kts | 178° |
| 2026-04-14 21:42 | -33.39598 | -70.79607 | 1570 ft | 1 kts | 178° |